Latest Weather Observations for Rhyll

IDV60901

Issued at 9:31 am EST Sunday 24 June 2018 (issued every 10 minutes, with the page automatically refreshed every 10 minutes)

About weather observations | Map of Melbourne area stations | Latest observations for Melbourne area | Other Formats
Station Details ID: 086373 Name: RHYLL Lat: -38.46 Lon: 145.31 Height: 13.4 m
Data from the previous 72 hours. | See also: Recent months at Rhyll
Date/Time
EST
Temp
°C
App
Temp
°C
Dew
Point
°C
Rel
Hum
%
Delta-T
°C
Wind Press
QNH
hPa
Press
MSL
hPa
Rain since
9am
mm
Dir  Spd
km/h
Gust
km/h
Spd
kts
Gust
kts
24/09:30am 11.3 9.1 5.4 67 2.7 W 6 9 3 5 1030.5 1030.5 0.0
24/09:00am 10.9 8.6 5.0 67 2.7 W 6 7 3 4 1030.4 1030.4 2.6
24/08:30am 10.8 8.4 4.3 64 2.9 W 6 7 3 4 1030.3 1030.3 2.6
24/08:00am 10.9 8.8 3.7 61 3.2 W 4 6 2 3 1030.1 1030.1 2.6
24/07:30am 11.2 7.3 3.5 59 3.4 SW 13 20 7 11 1029.9 1029.9 2.6
24/07:00am 10.7 8.4 4.6 66 2.7 WSW 6 11 3 6 1029.7 1029.7 2.6
24/06:30am 10.5 8.4 4.0 64 2.9 W 4 7 2 4 1029.3 1029.3 2.6
24/06:00am 10.9 8.2 3.7 61 3.2 WSW 7 15 4 8 1029.2 1029.2 2.6
24/05:30am 10.9 6.6 3.5 60 3.3 SW 15 26 8 14 1029.1 1029.1 2.6
24/05:00am 11.0 8.0 4.2 63 3.0 SW 9 15 5 8 1028.9 1028.9 2.6
24/04:30am 11.1 7.0 4.1 62 3.1 SW 15 22 8 12 1028.9 1028.9 2.6
24/04:00am 11.1 7.8 4.3 63 3.0 SW 11 20 6 11 1028.8 1028.8 2.6
24/03:30am 10.9 8.4 5.0 67 2.7 SSW 7 13 4 7 1028.7 1028.7 2.6
24/03:00am 10.5 8.6 4.9 68 2.5 WSW 4 9 2 5 1028.9 1028.9 2.6
24/02:30am 10.3 8.1 5.3 71 2.3 WSW 6 9 3 5 1029.0 1029.0 2.6
24/02:00am 9.5 7.6 6.9 84 1.2 W 6 13 3 7 1028.9 1028.9 2.6
24/01:30am 9.4 7.5 6.5 82 1.3 WNW 6 7 3 4 1028.7 1028.7 2.6
24/01:00am 9.9 7.9 6.4 79 1.6 W 6 9 3 5 1028.9 1028.9 2.6
24/12:30am 10.1 7.9 6.1 76 1.9 W 7 9 4 5 1028.9 1028.9 2.6
24/12:00am 10.5 8.2 5.7 72 2.2 WSW 7 15 4 8 1029.1 1029.1 2.6
 
Date/Time
EST
Temp
°C
App
Temp
°C
Dew
Point
°C
Rel
Hum
%
Delta-T
°C
Wind Press
QNH
hPa
Press
MSL
hPa
Rain since
9am
mm
Dir  Spd
km/h
Gust
km/h
Spd
kts
Gust
kts
23/11:30pm 10.3 8.0 5.5 72 2.2 WSW 7 19 4 10 1029.2 1029.2 2.6
23/11:00pm 10.1 7.9 5.1 71 2.2 WSW 6 9 3 5 1029.1 1029.1 2.6
23/10:30pm 10.9 8.0 4.8 66 2.8 WSW 9 15 5 8 1029.0 1029.0 2.6
23/10:00pm 10.8 8.5 5.6 70 2.4 WSW 7 11 4 6 1028.8 1028.8 2.6
23/09:30pm 11.3 7.7 5.2 66 2.8 SW 13 22 7 12 1028.6 1028.6 2.6
23/09:00pm 11.8 7.2 3.8 58 3.5 SW 17 28 9 15 1028.4 1028.4 2.6
23/08:30pm 11.9 8.2 4.6 61 3.3 SW 13 24 7 13 1028.2 1028.2 2.6
23/08:00pm 11.9 8.7 4.9 62 3.2 SW 11 19 6 10 1027.9 1027.9 2.6
23/07:30pm 12.0 7.6 4.7 61 3.3 SW 17 28 9 15 1027.7 1027.7 2.6
23/07:00pm 11.9 7.8 4.6 61 3.3 SW 15 20 8 11 1027.4 1027.4 2.6
23/06:30pm 12.1 8.5 4.8 61 3.3 SW 13 22 7 12 1027.0 1027.0 2.6
23/06:00pm 12.1 8.2 5.3 63 3.1 SW 15 24 8 13 1026.7 1026.7 2.6
23/05:30pm 12.0 8.6 5.9 66 2.9 SW 13 24 7 13 1026.3 1026.3 2.6
23/05:00pm 12.0 8.8 6.9 71 2.4 SW 13 24 7 13 1026.2 1026.2 2.6
23/04:30pm 12.1 9.0 7.4 73 2.3 SW 13 20 7 11 1026.2 1026.2 2.6
23/04:00pm 12.5 9.6 8.2 75 2.1 SW 13 20 7 11 1026.0 1026.0 2.6
23/03:30pm 12.1 10.1 8.8 80 1.6 SW 9 19 5 10 1025.7 1025.7 2.6
23/03:00pm 11.6 9.7 9.2 85 1.2 WSW 9 15 5 8 1025.4 1025.4 2.6
23/02:30pm 11.3 10.2 9.9 91 0.7 WSW 6 13 3 7 1025.1 1025.1 2.6
23/02:00pm 11.4 10.5 10.5 94 0.5 WSW 6 13 3 7 1025.1 1025.1 2.6
23/01:30pm 11.3 10.7 10.4 94 0.5 WNW 4 9 2 5 1024.9 1024.9 1.6
23/01:00pm 10.9 9.6 9.8 93 0.6 WNW 7 13 4 7 1025.1 1025.1 1.0
23/12:30pm 10.9 9.0 9.0 88 0.9 WNW 9 17 5 9 1025.3 1025.3 0.6
23/12:00pm 11.0 9.4 8.6 85 1.2 WNW 7 15 4 8 1025.4 1025.4 0.2
23/11:30am 10.9 8.3 7.8 81 1.5 WNW 11 24 6 13 1025.6 1025.6 0.2
23/11:00am 11.3 8.6 7.2 76 2.0 WNW 11 20 6 11 1025.7 1025.7 0.0
23/10:30am 11.2 8.7 6.7 74 2.1 WNW 9 20 5 11 1025.5 1025.5 0.0
23/10:00am 11.3 9.2 6.6 73 2.2 NW 7 17 4 9 1025.4 1025.4 0.0
23/09:30am 10.8 8.4 6.9 77 1.8 NW 9 20 5 11 1025.2 1025.2 0.0
23/09:00am 10.4 7.6 6.9 79 1.6 NW 11 20 6 11 1025.1 1025.1 0.0
23/08:30am 10.0 6.5 7.1 82 1.4 NNW 15 26 8 14 1024.9 1024.9 0.0
23/08:00am 9.5 5.9 6.9 84 1.2 NNW 15 22 8 12 1024.7 1024.7 0.0
23/07:30am 9.2 4.6 6.6 84 1.2 NNW 20 28 11 15 1024.7 1024.7 0.0
23/07:00am 8.9 4.3 6.3 84 1.2 NNW 20 32 11 17 1024.4 1024.4 0.0
23/06:30am 8.6 3.9 6.2 85 1.1 NNW 20 28 11 15 1024.3 1024.3 0.0
23/06:00am 8.3 3.2 5.8 84 1.1 NNW 22 26 12 14 1024.1 1024.1 0.0
23/05:30am 8.5 3.7 5.8 83 1.2 NNW 20 32 11 17 1024.1 1024.1 0.0
23/05:00am 8.5 3.8 6.1 85 1.1 NNW 20 32 11 17 1023.8 1023.8 0.0
23/04:30am 8.5 4.8 6.1 85 1.1 NNW 15 24 8 13 1023.9 1023.9 0.0
23/04:00am 8.7 4.2 6.2 84 1.1 NNW 19 33 10 18 1023.8 1023.8 0.0
23/03:30am 8.3 4.9 5.8 84 1.1 NNW 13 20 7 11 1024.0 1024.0 0.0
23/03:00am 8.4 5.1 6.4 87 0.9 NNW 13 19 7 10 1024.3 1024.3 0.0
23/02:30am 7.8 3.5 5.4 85 1.1 N 17 22 9 12 1024.4 1024.4 0.0
23/02:00am 7.8 2.9 5.3 84 1.1 N 20 24 11 13 1024.5 1024.5 0.0
23/01:30am 8.8 4.1 6.1 83 1.2 N 20 28 11 15 1024.4 1024.4 0.0
23/01:00am 8.6 3.9 5.9 83 1.2 NNW 20 28 11 15 1024.5 1024.5 0.0
23/12:30am 8.7 4.6 6.3 85 1.1 NNW 17 20 9 11 1025.0 1025.0 0.0
23/12:00am 8.8 4.3 6.3 84 1.1 NNW 19 22 10 12 1025.2 1025.2 0.0
 
Date/Time
EST
Temp
°C
App
Temp
°C
Dew
Point
°C
Rel
Hum
%
Delta-T
°C
Wind Press
QNH
hPa
Press
MSL
hPa
Rain since
9am
mm
Dir  Spd
km/h
Gust
km/h
Spd
kts
Gust
kts
22/11:30pm 9.0 4.9 6.3 83 1.2 NNW 17 24 9 13 1025.4 1025.4 0.0
22/11:00pm 9.0 4.9 6.1 82 1.3 NNW 17 22 9 12 1025.6 1025.6 0.0
22/10:30pm 9.1 4.4 6.2 82 1.3 N 20 28 11 15 1025.4 1025.4 0.0
22/10:00pm 9.5 4.5 6.6 82 1.3 N 22 28 12 15 1025.6 1025.6 0.0
22/09:30pm 9.6 5.3 6.9 83 1.3 NNW 19 24 10 13 1025.7 1025.7 0.0
22/09:00pm 9.6 5.0 6.7 82 1.3 N 20 26 11 14 1025.6 1025.6 0.0
22/08:30pm 10.1 5.7 6.6 79 1.6 N 19 24 10 13 1026.0 1026.0 0.0
22/08:00pm 10.2 6.5 6.2 76 1.8 N 15 19 8 10 1026.1 1026.1 0.0
22/07:30pm 10.7 7.5 6.8 77 1.8 N 13 17 7 9 1026.1 1026.1 0.0
22/07:00pm 10.6 7.8 6.9 78 1.7 N 11 13 6 7 1026.1 1026.1 0.0
22/06:30pm 10.7 9.0 6.1 73 2.1 NW 4 9 2 5 1026.2 1026.2 0.0
22/06:00pm 10.1 8.4 5.7 74 2.0 NW 4 7 2 4 1026.1 1026.1 0.0
22/05:30pm 10.3 9.0 5.9 74 2.0 WNW 2 6 1 3 1026.0 1026.0 0.0
22/05:00pm 11.2 10.0 6.5 73 2.2 NW 2 7 1 4 1025.9 1025.9 0.0
22/04:30pm 11.8 9.8 7.3 74 2.2 NNW 7 11 4 6 1025.9 1025.9 0.0
22/04:00pm 12.3 9.9 7.2 71 2.4 NNW 9 13 5 7 1025.9 1025.9 0.0
22/03:30pm 12.9 10.8 6.5 65 3.1 NNW 7 13 4 7 1026.0 1026.0 0.0
22/03:00pm 13.1 10.3 7.1 67 2.9 NNW 11 17 6 9 1026.1 1026.1 0.0
22/02:30pm 13.2 10.1 7.2 67 2.9 NNW 13 19 7 10 1026.1 1026.1 0.0
22/02:00pm 13.4 10.5 8.3 71 2.5 NNW 13 19 7 10 1026.2 1026.2 0.0
22/01:30pm 13.5 11.0 8.4 71 2.5 NNW 11 17 6 9 1026.4 1026.4 0.0
22/01:00pm 13.0 10.5 8.3 73 2.3 NNW 11 17 6 9 1026.7 1026.7 0.0
22/12:30pm 12.3 9.0 8.2 76 2.0 NNW 15 19 8 10 1027.1 1027.1 0.0
22/12:00pm 11.8 8.2 8.3 79 1.7 N 17 20 9 11 1027.4 1027.4 0.0
22/11:30am 11.1 7.4 7.8 80 1.6 N 17 22 9 12 1027.8 1027.8 0.0
22/11:00am 10.7 7.7 7.6 81 1.5 NNW 13 19 7 10 1028.2 1028.2 0.0
22/10:30am 10.4 7.4 7.6 83 1.3 NNW 13 19 7 10 1028.3 1028.3 0.0
22/10:00am 10.2 7.2 7.8 85 1.1 NNW 13 19 7 10 1028.4 1028.4 0.0
22/09:30am 9.3 6.3 7.6 89 0.8 N 13 19 7 10 1028.4 1028.4 0.0
22/09:00am 8.6 4.7 6.9 89 0.8 N 17 19 9 10 1028.3 1028.3 0.2
22/08:30am 8.3 4.8 7.1 92 0.6 N 15 19 8 10 1028.2 1028.2 0.2
22/08:00am 8.6 5.9 7.4 92 0.6 N 11 17 6 9 1028.0 1028.0 0.2
22/07:30am 9.0 6.8 7.8 92 0.6 NNW 9 15 5 8 1027.9 1027.9 0.2
22/07:00am 8.8 6.5 7.4 91 0.7 NNW 9 15 5 8 1027.8 1027.8 0.2
22/06:30am 8.6 5.9 7.4 92 0.6 NNW 11 15 6 8 1027.7 1027.7 0.2
22/06:00am 8.5 6.2 7.4 93 0.5 NNW 9 13 5 7 1027.5 1027.5 0.2
22/05:30am 8.4 5.3 7.3 93 0.5 N 13 17 7 9 1027.3 1027.3 0.0
22/05:00am 8.5 5.4 7.4 93 0.5 N 13 15 7 8 1027.2 1027.2 0.0
22/04:30am 8.7 7.4 7.5 92 0.6 NW 4 9 2 5 1027.3 1027.3 0.0
22/04:00am 8.7 7.4 7.5 92 0.6 NW 4 7 2 4 1027.4 1027.4 0.0
22/03:30am 8.8 7.4 7.4 91 0.7 NW 4 7 2 4 1027.5 1027.5 0.0
22/03:00am 8.8 7.4 7.4 91 0.7 NW 4 9 2 5 1027.7 1027.7 0.0
22/02:30am 8.7 7.7 7.3 91 0.7 NW 2 4 1 2 1027.8 1027.8 0.0
22/02:00am 8.9 7.5 7.4 90 0.7 WNW 4 7 2 4 1027.7 1027.7 0.0
22/01:30am 9.2 7.9 7.5 89 0.8 NW 4 7 2 4 1027.7 1027.7 0.0
22/01:00am 9.8 8.0 8.1 89 0.8 NNW 7 11 4 6 1027.9 1027.9 0.0
22/12:30am 10.1 8.3 8.0 87 1.0 NNW 7 13 4 7 1028.0 1028.0 0.0
22/12:00am 9.9 8.1 8.0 88 0.9 N 7 11 4 6 1028.2 1028.2 0.0
 
Date/Time
EST
Temp
°C
App
Temp
°C
Dew
Point
°C
Rel
Hum
%
Delta-T
°C
Wind Press
QNH
hPa
Press
MSL
hPa
Rain since
9am
mm
Dir  Spd
km/h
Gust
km/h
Spd
kts
Gust
kts
21/11:30pm 9.9 8.3 7.8 87 1.0 N 6 7 3 4 1028.4 1028.4 0.0
21/11:00pm 9.8 8.5 7.7 87 1.0 NNW 4 7 2 4 1028.4 1028.4 0.0
21/10:30pm 9.8 8.1 7.7 87 1.0 NNW 6 7 3 4 1028.4 1028.4 0.0
21/10:00pm 10.0 8.7 7.8 86 1.0 NNW 4 7 2 4 1028.5 1028.5 0.0
21/09:30pm 9.9 8.0 7.5 85 1.1 NNW 7 9 4 5 1028.4 1028.4 0.0
21/09:00pm 9.8 8.1 7.4 85 1.1 NNW 6 7 3 4 1028.4 1028.4 0.0
21/08:30pm 9.9 8.1 7.8 87 1.0 NNW 7 7 4 4 1028.2 1028.2 0.0
21/08:00pm 10.2 8.6 8.1 87 1.0 N 6 7 3 4 1028.2 1028.2 0.0
21/07:30pm 9.9 8.1 7.3 84 1.2 NNW 6 6 3 3 1028.2 1028.2 0.0
21/07:00pm 10.2 8.8 7.3 82 1.4 NW 4 6 2 3 1028.2 1028.2 0.0
21/06:30pm 10.4 9.1 7.5 82 1.4 NW 4 7 2 4 1028.1 1028.1 0.0
21/06:00pm 10.2 9.1 7.1 81 1.5 NW 2 4 1 2 1028.0 1028.0 0.0
21/05:30pm 10.5 9.0 6.8 78 1.7 WNW 4 6 2 3 1027.8 1027.8 0.0
21/05:00pm 11.4 10.3 6.9 74 2.1 WNW 2 2 1 1 1027.6 1027.6 0.0
21/04:30pm 12.0 10.8 6.5 69 2.6 WNW 2 4 1 2 1027.5 1027.5 0.0
21/04:00pm 12.6 11.5 6.9 68 2.7 NW 2 6 1 3 1027.2 1027.2 0.0
21/03:30pm 13.1 11.2 6.9 66 3.0 NNW 6 9 3 5 1027.1 1027.1 0.0
21/03:00pm 13.2 11.0 6.3 63 3.3 NW 7 15 4 8 1027.0 1027.0 0.0
21/02:30pm 13.2 10.6 6.1 62 3.4 NW 9 13 5 7 1026.9 1026.9 0.0
21/02:00pm 13.0 10.3 5.4 60 3.5 W 9 17 5 9 1027.2 1027.2 0.0
21/01:30pm 13.1 10.5 6.2 63 3.3 NW 9 17 5 9 1027.3 1027.3 0.0
21/01:00pm 13.1 10.6 6.7 65 3.1 NNW 9 15 5 8 1027.5 1027.5 0.0
21/12:30pm 12.4 9.2 6.7 68 2.7 NNW 13 17 7 9 1027.8 1027.8 0.0
21/12:00pm 12.0 8.4 6.9 71 2.4 NNW 15 19 8 10 1028.2 1028.2 0.0
21/11:30am 11.5 7.5 6.6 72 2.3 NNW 17 20 9 11 1028.4 1028.4 0.0
21/11:00am 11.0 7.9 7.1 77 1.8 N 13 17 7 9 1028.7 1028.7 0.0
21/10:30am 10.1 6.9 6.8 80 1.6 N 13 17 7 9 1028.9 1028.9 0.0
21/10:00am 9.8 7.4 7.1 83 1.3 N 9 15 5 8 1029.0 1029.0 0.0

Latest Capital City Observations: Canberra | Sydney | Melbourne | Brisbane | Adelaide | Perth | Hobart | Darwin

Other Formats:

Comma delimited format used in spreadsheet applications
http://www.bom.gov.au/fwo/IDV60901/IDV60901.94892.axf

JavaScript Object Notation format (JSON) in row-major order
http://www.bom.gov.au/fwo/IDV60901/IDV60901.94892.json